createdAt,value
2024-04-08T11:31:27.303Z,95633.00
2024-04-08T11:33:54.396Z,95626.09
2024-04-08T11:36:24.225Z,95622.47
2024-04-08T11:38:51.713Z,95614.41
2024-04-08T11:41:21.747Z,95600.19
2024-04-08T11:43:49.438Z,95603.16
2024-04-08T11:46:20.252Z,95611.41
2024-04-08T11:48:50.180Z,95591.03
2024-04-08T11:51:20.156Z,95596.38
2024-04-08T11:53:47.350Z,95549.41
2024-04-08T11:56:17.876Z,95588.84
2024-04-08T11:58:45.117Z,95579.94
2024-04-08T12:01:15.131Z,95590.66
2024-04-08T12:03:42.472Z,95587.25
2024-04-08T12:06:16.597Z,95590.31
2024-04-08T12:08:43.939Z,95589.09
2024-04-08T12:11:14.969Z,95549.28
2024-04-08T12:13:44.148Z,95581.75
2024-04-08T12:16:14.404Z,95569.34
2024-04-08T12:18:41.832Z,95556.63
2024-04-08T12:21:14.592Z,95565.66
2024-04-08T12:23:41.955Z,95532.31
2024-04-08T12:26:12.825Z,95549.06
2024-04-08T12:28:39.934Z,95545.09
2024-04-08T12:31:09.760Z,95538.81
2024-04-08T12:33:37.128Z,95486.59
2024-04-08T12:36:07.488Z,95547.41
2024-04-08T12:38:37.375Z,95542.66
2024-04-08T12:41:07.737Z,95524.09
2024-04-08T12:43:46.721Z,95545.34
2024-04-08T12:46:21.890Z,95529.59
2024-04-08T12:48:49.084Z,95492.19
2024-04-08T12:51:19.100Z,95517.19
2024-04-08T12:53:48.913Z,95517.81
2024-04-08T12:56:18.759Z,95510.66
2024-04-08T12:58:45.854Z,95514.66
2024-04-08T13:01:16.282Z,95505.25
2024-04-08T13:03:43.591Z,95509.75
2024-04-08T13:06:13.364Z,95498.75
2024-04-08T13:08:40.425Z,95503.00
2024-04-08T13:11:12.847Z,95495.84
2024-04-08T13:13:42.307Z,95448.59
2024-04-08T13:16:13.795Z,95483.56
2024-04-08T13:18:43.103Z,95487.59
2024-04-08T13:21:13.140Z,95485.00
2024-04-08T13:23:40.731Z,95465.63
2024-04-08T13:26:14.349Z,95491.47
2024-04-08T13:28:41.444Z,95475.16
2024-04-08T13:31:11.271Z,95447.88
2024-04-08T13:33:38.547Z,95481.16
2024-04-08T13:36:11.387Z,95477.03
2024-04-08T13:38:38.858Z,95472.84
2024-04-08T13:41:09.961Z,95470.38
2024-04-08T13:43:42.923Z,95464.06
2024-04-08T13:46:14.261Z,95466.50
2024-04-08T13:48:41.545Z,95458.38
2024-04-08T13:51:11.406Z,95451.00
2024-04-08T13:53:38.598Z,95403.88
2024-04-08T13:56:09.303Z,95435.25
2024-04-08T13:58:36.440Z,95426.09
2024-04-08T14:01:08.863Z,95462.03
2024-04-08T14:03:36.512Z,95456.75
2024-04-08T14:06:06.426Z,95421.03
2024-04-08T14:08:33.616Z,95456.75
2024-04-08T14:11:04.464Z,95453.44
2024-04-08T14:13:31.872Z,95455.09
2024-04-08T14:16:01.734Z,95450.88
2024-04-08T14:18:31.970Z,95445.28
2024-04-08T14:21:02.018Z,95411.81
2024-04-08T14:23:29.228Z,95419.69
2024-04-08T14:25:58.984Z,95445.28
2024-04-08T14:28:26.084Z,95442.41
2024-04-08T14:30:55.850Z,95427.66
2024-04-08T14:33:23.265Z,95442.63
2024-04-08T14:35:55.942Z,95440.88
2024-04-08T14:38:46.604Z,95434.34
2024-04-08T14:41:12.866Z,95438.28
2024-04-08T14:43:47.062Z,95443.63
2024-04-08T14:46:25.085Z,95441.25
2024-04-08T14:48:52.365Z,95438.81
2024-04-08T14:51:33.522Z,95445.03
2024-04-08T14:54:06.360Z,95435.75
2024-04-08T14:56:36.560Z,95443.28
2024-04-08T14:59:04.029Z,95438.81
2024-04-08T15:01:34.162Z,95436.53
2024-04-08T15:04:02.147Z,95432.97
2024-04-08T15:06:34.620Z,95440.88
2024-04-08T15:09:01.809Z,95442.38
2024-04-08T15:11:35.096Z,95391.75
2024-04-08T15:14:02.315Z,95417.25
2024-04-08T15:16:32.635Z,95430.44
2024-04-08T15:18:59.971Z,95439.19
2024-04-08T15:21:29.930Z,95420.88
2024-04-08T15:24:00.049Z,95432.84
2024-04-08T15:26:30.373Z,95435.78
2024-04-08T15:28:57.458Z,95432.59
2024-04-08T15:31:27.213Z,95433.50
2024-04-08T15:33:54.522Z,95432.41
2024-04-08T15:36:24.445Z,95440.84
2024-04-08T15:38:51.754Z,95399.31
2024-04-08T15:41:24.424Z,95433.16
2024-04-08T15:43:51.556Z,95437.22
2024-04-08T15:46:21.269Z,95433.50
2024-04-08T15:48:48.559Z,95426.88
2024-04-08T15:51:19.361Z,95439.88
2024-04-08T15:53:46.782Z,95432.41
2024-04-08T15:56:16.663Z,95423.91
2024-04-08T15:58:46.496Z,95431.38
2024-04-08T16:01:16.323Z,95418.06
2024-04-08T16:03:43.809Z,95422.84
2024-04-08T16:06:15.600Z,95388.50
2024-04-08T16:08:44.519Z,95421.66
2024-04-08T16:11:21.253Z,95420.38
2024-04-08T16:13:51.172Z,95422.97
2024-04-08T16:16:21.156Z,95430.63
2024-04-08T16:18:48.445Z,95431.84
2024-04-08T16:21:23.888Z,95422.31
2024-04-08T16:23:55.445Z,95396.97
2024-04-08T16:26:27.122Z,95444.66
2024-04-08T16:29:01.198Z,95441.63
2024-04-08T16:31:34.437Z,95438.88
2024-04-08T16:34:02.290Z,95449.78
2024-04-08T16:36:32.685Z,95449.34
2024-04-08T16:39:00.202Z,95456.53
2024-04-08T16:41:30.325Z,95452.81
2024-04-08T16:44:04.740Z,95453.41
2024-04-08T16:46:34.564Z,95453.81
2024-04-08T16:49:02.053Z,95453.66
2024-04-08T16:51:32.128Z,95455.94
2024-04-08T16:53:59.357Z,95464.63
2024-04-08T16:56:31.918Z,95456.19
2024-04-08T16:59:05.669Z,95457.66
2024-04-08T17:01:32.826Z,95392.34
2024-04-08T17:04:05.379Z,95456.72
2024-04-08T17:06:37.541Z,95463.97
2024-04-08T17:09:07.539Z,95459.13
2024-04-08T17:11:34.667Z,95471.63
2024-04-08T17:14:07.061Z,95475.72
2024-04-08T17:16:34.919Z,95466.19
2024-04-08T17:19:05.699Z,95476.53
2024-04-08T17:21:34.146Z,95431.44
2024-04-08T17:24:05.080Z,95477.06
2024-04-08T17:26:32.313Z,95440.41
2024-04-08T17:29:02.126Z,95481.78
2024-04-08T17:31:32.089Z,95479.31
2024-04-08T17:34:03.951Z,95487.31
2024-04-08T17:36:31.545Z,95483.31
2024-04-08T17:39:03.185Z,95497.66
2024-04-08T17:41:30.337Z,95485.97
2024-04-08T17:44:01.821Z,95502.34
2024-04-08T17:46:33.292Z,95499.94
2024-04-08T17:49:05.602Z,95478.44
2024-04-08T17:51:33.073Z,95505.56
2024-04-08T17:54:03.192Z,95497.31
2024-04-08T17:56:32.654Z,95501.94
2024-04-08T17:59:03.517Z,95511.41
2024-04-08T18:01:33.320Z,95509.69
2024-04-08T18:04:03.679Z,95515.31
2024-04-08T18:06:30.949Z,95509.22
2024-04-08T18:09:01.049Z,95497.78
2024-04-08T18:11:28.353Z,95512.84
2024-04-08T18:13:58.533Z,95526.56
2024-04-08T18:16:26.296Z,95487.63
2024-04-08T18:18:59.101Z,95522.88
2024-04-08T18:21:26.281Z,95537.56
2024-04-08T18:23:56.136Z,95525.53
2024-04-08T18:26:24.709Z,95549.88
2024-04-08T18:28:57.080Z,95551.88
2024-04-08T18:31:24.535Z,95561.13
2024-04-08T18:33:54.823Z,95553.38
2024-04-08T18:36:26.053Z,95550.31
2024-04-08T18:38:55.994Z,95554.00
2024-04-08T18:41:23.067Z,95561.88
2024-04-08T18:43:53.289Z,95504.22
2024-04-08T18:46:21.772Z,95564.22
2024-04-08T18:48:51.834Z,95561.53
2024-04-08T18:51:19.324Z,95568.09
2024-04-08T18:53:54.265Z,95564.47
2024-04-08T18:56:23.700Z,95559.72
2024-04-08T18:58:56.663Z,95564.06
2024-04-08T19:01:25.573Z,95562.31
2024-04-08T19:03:56.145Z,95494.47
2024-04-08T19:06:23.780Z,95559.22
2024-04-08T19:08:56.784Z,95557.09
2024-04-08T19:11:32.102Z,95556.00
2024-04-08T19:14:07.114Z,95552.31
2024-04-08T19:16:34.206Z,95556.88
2024-04-08T19:19:04.769Z,95559.53
2024-04-08T19:21:32.262Z,95558.22
2024-04-08T19:24:05.143Z,95552.72
2024-04-08T19:26:33.733Z,95564.31
2024-04-08T19:29:03.458Z,95484.97
2024-04-08T19:31:30.654Z,95558.84
2024-04-08T19:34:00.609Z,95538.47
2024-04-08T19:36:29.454Z,95542.88
2024-04-08T19:38:59.371Z,95566.31
2024-04-08T19:41:30.737Z,95569.25
2024-04-08T19:44:01.249Z,95527.66
2024-04-08T19:46:29.012Z,95564.66
2024-04-08T19:48:59.348Z,95538.59
2024-04-08T19:51:27.081Z,95574.47
2024-04-08T19:53:57.265Z,95573.25
2024-04-08T19:56:26.351Z,95567.16
2024-04-08T19:58:59.279Z,95583.63
2024-04-08T20:01:26.504Z,95571.09
2024-04-08T20:03:57.110Z,95578.56
2024-04-08T20:06:25.662Z,95568.22
2024-04-08T20:08:55.417Z,95574.91
2024-04-08T20:11:22.565Z,95574.63
2024-04-08T20:13:52.354Z,95575.34
2024-04-08T20:16:22.734Z,95580.28
2024-04-08T20:18:53.554Z,95572.28
2024-04-08T20:21:22.043Z,95522.81
2024-04-08T20:23:51.844Z,95578.47
2024-04-08T20:26:19.555Z,95580.69
2024-04-08T20:28:49.395Z,95569.16
2024-04-08T20:31:16.494Z,95568.59
2024-04-08T20:33:50.556Z,95572.94
2024-04-08T20:36:17.995Z,95575.25
2024-04-08T20:38:48.225Z,95571.50
2024-04-08T20:41:15.366Z,95570.59
2024-04-08T20:43:45.755Z,95576.84
2024-04-08T20:46:12.952Z,95574.34
2024-04-08T20:48:43.591Z,95570.28
2024-04-08T20:51:13.555Z,95573.81
2024-04-08T20:53:43.293Z,95582.38
2024-04-08T20:56:11.230Z,95578.06
2024-04-08T20:58:40.982Z,95580.91
2024-04-08T21:01:09.616Z,95571.47
2024-04-08T21:03:41.100Z,95583.84
2024-04-08T21:06:09.562Z,95577.03
2024-04-08T21:08:43.764Z,95578.75
2024-04-08T21:11:15.080Z,95540.56
2024-04-08T21:13:42.454Z,95584.66
2024-04-08T21:16:12.327Z,95562.59
2024-04-08T21:18:39.606Z,95579.38
2024-04-08T21:21:11.693Z,95580.78
2024-04-08T21:23:42.234Z,95574.84
2024-04-08T21:26:14.626Z,95552.16
2024-04-08T21:28:44.112Z,95566.28
2024-04-08T21:31:14.771Z,95566.75
2024-04-08T21:33:44.043Z,95570.59
2024-04-08T21:36:13.837Z,95540.53
2024-04-08T21:38:43.654Z,95545.84
2024-04-08T21:41:14.496Z,95520.00
2024-04-08T21:43:43.870Z,95515.03
2024-04-08T21:46:17.703Z,95565.38
2024-04-08T21:48:45.020Z,95568.03
2024-04-08T21:51:19.611Z,95561.78
2024-04-08T21:53:49.405Z,95559.53
2024-04-08T21:56:19.110Z,95567.09
2024-04-08T21:58:47.516Z,95563.97
2024-04-08T22:01:18.366Z,95569.66
2024-04-08T22:03:47.056Z,95568.69
2024-04-08T22:06:17.307Z,95569.28
2024-04-08T22:08:46.530Z,95573.03
2024-04-08T22:11:19.886Z,95564.38
2024-04-08T22:13:47.525Z,95533.63
2024-04-08T22:16:17.455Z,95569.53
2024-04-08T22:18:44.619Z,95557.97
2024-04-08T22:21:14.379Z,95568.47
2024-04-08T22:23:43.301Z,95565.09
2024-04-08T22:26:14.353Z,95566.78
2024-04-08T22:28:44.258Z,95561.63
2024-04-08T22:31:13.965Z,95558.69
2024-04-08T22:33:41.260Z,95553.09
2024-04-08T22:36:11.896Z,95555.00
2024-04-08T22:38:39.113Z,95545.13
2024-04-08T22:41:15.908Z,95499.81
2024-04-08T22:43:50.511Z,95548.94
2024-04-08T22:46:21.053Z,95545.66
2024-04-08T22:48:48.229Z,95533.41
2024-04-08T22:51:18.136Z,95533.63
2024-04-08T22:53:45.294Z,95544.19
2024-04-08T22:56:15.134Z,95476.63
2024-04-08T22:58:42.320Z,95520.72
2024-04-08T23:01:15.720Z,95540.25
2024-04-08T23:03:43.503Z,95540.66
2024-04-08T23:06:13.490Z,95537.16
2024-04-08T23:08:40.606Z,95540.91
2024-04-08T23:11:10.777Z,95534.53
2024-04-08T23:13:37.916Z,95534.75
2024-04-08T23:16:08.049Z,95524.72
2024-04-08T23:18:38.339Z,95511.19
2024-04-08T23:21:08.471Z,95533.56
2024-04-08T23:23:35.677Z,95529.47
2024-04-08T23:26:06.137Z,95526.25
2024-04-08T23:28:33.595Z,95497.34
2024-04-08T23:31:03.370Z,95525.44
2024-04-08T23:33:31.023Z,95521.00
2024-04-08T23:36:04.138Z,95507.56
2024-04-08T23:38:32.611Z,95512.13
2024-04-08T23:41:02.998Z,95514.91
2024-04-08T23:43:30.315Z,95521.00
2024-04-08T23:46:01.420Z,95516.75
2024-04-08T23:48:30.618Z,95514.44
2024-04-08T23:51:03.906Z,95517.34
2024-04-08T23:53:31.008Z,95515.19
2024-04-08T23:56:01.299Z,95513.50
2024-04-08T23:58:28.530Z,95515.41
